Burr Oak, Michigan
Current Conditions -  °F | °C
As of 5:34 PM on Friday 24 Oct 2014 (Local Time) from KIRS Reporting Station
Scattered Clouds Scattered Clouds  
Wind Chill: 61°   Ceiling: Unl
Heat Index: 61°   Visibility: 10mi
Dew Point: 52°   Wind: 7mph
Humidity: 72%   Direction: 240°WSW
Pressure: 29.98"   Gusts: NA
Location:  41.85°N, 85.32°W
Report Text: KIRS 242134Z AUTO 24006KT 10SM SCT036 16/11 A2998 RMK AO2
Loading
Personal Weather Stations






























Interactive Weather Map
Tropical Storm Tracking
New forecast layout! Learn more

10-Day Weather Forecast

Advertisements
Track Severe Weather on mobile